sensor_id;sensor_type;location;lat;lon;timestamp;P1;durP1;ratioP1;P2;durP2;ratioP2
10403;SDS011;5248;47.374;8.486;2024-01-30T00:01:09;6.13;;;5.53;;
10403;SDS011;5248;47.374;8.486;2024-01-30T00:03:36;6.00;;;5.50;;
10403;SDS011;5248;47.374;8.486;2024-01-30T00:06:02;7.43;;;5.53;;
10403;SDS011;5248;47.374;8.486;2024-01-30T00:08:30;6.43;;;5.80;;
10403;SDS011;5248;47.374;8.486;2024-01-30T00:10:58;8.63;;;6.37;;
10403;SDS011;5248;47.374;8.486;2024-01-30T00:13:24;6.50;;;5.73;;
10403;SDS011;5248;47.374;8.486;2024-01-30T00:15:51;6.63;;;5.33;;
10403;SDS011;5248;47.374;8.486;2024-01-30T00:18:18;6.20;;;5.67;;
10403;SDS011;5248;47.374;8.486;2024-01-30T00:20:46;7.33;;;6.47;;
10403;SDS011;5248;47.374;8.486;2024-01-30T00:23:12;7.23;;;6.50;;
10403;SDS011;5248;47.374;8.486;2024-01-30T00:25:41;7.30;;;6.07;;
10403;SDS011;5248;47.374;8.486;2024-01-30T00:28:07;7.13;;;6.43;;
10403;SDS011;5248;47.374;8.486;2024-01-30T00:30:34;7.23;;;6.53;;
10403;SDS011;5248;47.374;8.486;2024-01-30T00:33:01;9.10;;;6.27;;
10403;SDS011;5248;47.374;8.486;2024-01-30T00:35:29;7.73;;;6.23;;
10403;SDS011;5248;47.374;8.486;2024-01-30T00:37:56;6.67;;;6.07;;
10403;SDS011;5248;47.374;8.486;2024-01-30T00:40:23;6.03;;;5.53;;
10403;SDS011;5248;47.374;8.486;2024-01-30T00:42:51;6.30;;;5.70;;
10403;SDS011;5248;47.374;8.486;2024-01-30T00:45:19;6.30;;;5.47;;
10403;SDS011;5248;47.374;8.486;2024-01-30T00:47:47;5.93;;;5.43;;
10403;SDS011;5248;47.374;8.486;2024-01-30T00:50:15;6.63;;;5.27;;
10403;SDS011;5248;47.374;8.486;2024-01-30T00:52:42;5.57;;;5.07;;
10403;SDS011;5248;47.374;8.486;2024-01-30T00:55:10;6.03;;;5.43;;
10403;SDS011;5248;47.374;8.486;2024-01-30T00:57:37;8.70;;;5.80;;
10403;SDS011;5248;47.374;8.486;2024-01-30T01:00:06;6.60;;;5.80;;
10403;SDS011;5248;47.374;8.486;2024-01-30T01:02:34;8.53;;;5.97;;
10403;SDS011;5248;47.374;8.486;2024-01-30T01:05:01;6.47;;;5.87;;
10403;SDS011;5248;47.374;8.486;2024-01-30T01:07:27;6.13;;;5.53;;
10403;SDS011;5248;47.374;8.486;2024-01-30T01:09:54;6.23;;;5.47;;
10403;SDS011;5248;47.374;8.486;2024-01-30T01:12:20;6.57;;;5.90;;
10403;SDS011;5248;47.374;8.486;2024-01-30T01:14:47;6.00;;;5.50;;
10403;SDS011;5248;47.374;8.486;2024-01-30T01:17:15;5.87;;;5.37;;
10403;SDS011;5248;47.374;8.486;2024-01-30T01:19:43;5.97;;;5.30;;
10403;SDS011;5248;47.374;8.486;2024-01-30T01:22:10;9.50;;;5.37;;
10403;SDS011;5248;47.374;8.486;2024-01-30T01:24:37;5.73;;;5.13;;
10403;SDS011;5248;47.374;8.486;2024-01-30T01:27:04;9.77;;;5.30;;
10403;SDS011;5248;47.374;8.486;2024-01-30T01:29:31;5.93;;;5.43;;
10403;SDS011;5248;47.374;8.486;2024-01-30T01:31:58;6.37;;;5.77;;
10403;SDS011;5248;47.374;8.486;2024-01-30T01:34:26;6.13;;;5.23;;
10403;SDS011;5248;47.374;8.486;2024-01-30T01:36:52;6.17;;;5.57;;
10403;SDS011;5248;47.374;8.486;2024-01-30T01:39:20;6.03;;;5.27;;
10403;SDS011;5248;47.374;8.486;2024-01-30T01:41:47;7.50;;;5.90;;
10403;SDS011;5248;47.374;8.486;2024-01-30T01:44:14;6.90;;;5.40;;
10403;SDS011;5248;47.374;8.486;2024-01-30T01:46:40;6.23;;;5.63;;
10403;SDS011;5248;47.374;8.486;2024-01-30T01:49:07;5.77;;;5.27;;
10403;SDS011;5248;47.374;8.486;2024-01-30T01:51:36;6.13;;;5.53;;
10403;SDS011;5248;47.374;8.486;2024-01-30T01:54:03;5.90;;;5.27;;
10403;SDS011;5248;47.374;8.486;2024-01-30T01:56:30;5.23;;;4.73;;
10403;SDS011;5248;47.374;8.486;2024-01-30T01:58:59;6.37;;;5.17;;
10403;SDS011;5248;47.374;8.486;2024-01-30T02:01:27;5.67;;;5.17;;
10403;SDS011;5248;47.374;8.486;2024-01-30T02:03:55;5.97;;;5.33;;
10403;SDS011;5248;47.374;8.486;2024-01-30T02:06:22;7.07;;;6.30;;
10403;SDS011;5248;47.374;8.486;2024-01-30T02:08:53;5.77;;;5.17;;
10403;SDS011;5248;47.374;8.486;2024-01-30T02:11:19;6.93;;;6.07;;
10403;SDS011;5248;47.374;8.486;2024-01-30T02:13:47;7.13;;;5.77;;
10403;SDS011;5248;47.374;8.486;2024-01-30T02:16:14;5.37;;;4.87;;
10403;SDS011;5248;47.374;8.486;2024-01-30T02:18:40;6.37;;;5.77;;
10403;SDS011;5248;47.374;8.486;2024-01-30T02:21:13;6.47;;;5.07;;
10403;SDS011;5248;47.374;8.486;2024-01-30T02:23:41;6.00;;;5.40;;
10403;SDS011;5248;47.374;8.486;2024-01-30T02:26:09;5.00;;;4.60;;
10403;SDS011;5248;47.374;8.486;2024-01-30T02:28:37;5.63;;;5.13;;
10403;SDS011;5248;47.374;8.486;2024-01-30T02:31:03;5.60;;;5.00;;
10403;SDS011;5248;47.374;8.486;2024-01-30T02:33:30;5.77;;;5.17;;
10403;SDS011;5248;47.374;8.486;2024-01-30T02:35:59;6.20;;;5.43;;
10403;SDS011;5248;47.374;8.486;2024-01-30T02:38:27;6.50;;;5.83;;
10403;SDS011;5248;47.374;8.486;2024-01-30T02:40:54;6.00;;;5.40;;
10403;SDS011;5248;47.374;8.486;2024-01-30T02:43:21;5.30;;;4.87;;
10403;SDS011;5248;47.374;8.486;2024-01-30T02:45:48;6.40;;;5.70;;
10403;SDS011;5248;47.374;8.486;2024-01-30T02:48:14;6.17;;;5.53;;
10403;SDS011;5248;47.374;8.486;2024-01-30T02:50:41;7.03;;;6.33;;
10403;SDS011;5248;47.374;8.486;2024-01-30T02:53:07;5.90;;;5.33;;
10403;SDS011;5248;47.374;8.486;2024-01-30T02:55:35;6.20;;;5.70;;
10403;SDS011;5248;47.374;8.486;2024-01-30T02:58:02;6.53;;;5.60;;
10403;SDS011;5248;47.374;8.486;2024-01-30T03:00:29;7.53;;;5.80;;
10403;SDS011;5248;47.374;8.486;2024-01-30T03:02:56;6.23;;;5.63;;
10403;SDS011;5248;47.374;8.486;2024-01-30T03:05:22;6.30;;;5.70;;
10403;SDS011;5248;47.374;8.486;2024-01-30T03:07:49;6.07;;;5.47;;
10403;SDS011;5248;47.374;8.486;2024-01-30T03:10:16;6.50;;;5.60;;
10403;SDS011;5248;47.374;8.486;2024-01-30T03:12:44;6.13;;;5.37;;
10403;SDS011;5248;47.374;8.486;2024-01-30T03:15:10;7.43;;;5.30;;
10403;SDS011;5248;47.374;8.486;2024-01-30T03:17:37;6.03;;;5.33;;
10403;SDS011;5248;47.374;8.486;2024-01-30T03:20:04;6.63;;;5.93;;
10403;SDS011;5248;47.374;8.486;2024-01-30T03:22:32;6.87;;;5.83;;
10403;SDS011;5248;47.374;8.486;2024-01-30T03:24:58;6.87;;;5.93;;
10403;SDS011;5248;47.374;8.486;2024-01-30T03:27:27;7.27;;;6.20;;
10403;SDS011;5248;47.374;8.486;2024-01-30T03:29:55;6.10;;;5.50;;
10403;SDS011;5248;47.374;8.486;2024-01-30T03:32:22;6.43;;;5.50;;
10403;SDS011;5248;47.374;8.486;2024-01-30T03:34:47;6.20;;;5.33;;
10403;SDS011;5248;47.374;8.486;2024-01-30T03:37:14;6.27;;;5.67;;
10403;SDS011;5248;47.374;8.486;2024-01-30T03:39:41;7.40;;;5.90;;
10403;SDS011;5248;47.374;8.486;2024-01-30T03:42:08;8.57;;;6.27;;
10403;SDS011;5248;47.374;8.486;2024-01-30T03:44:35;8.00;;;6.47;;
10403;SDS011;5248;47.374;8.486;2024-01-30T03:47:03;6.40;;;5.80;;
10403;SDS011;5248;47.374;8.486;2024-01-30T03:49:29;7.17;;;6.33;;
10403;SDS011;5248;47.374;8.486;2024-01-30T03:51:58;6.97;;;6.27;;
10403;SDS011;5248;47.374;8.486;2024-01-30T03:54:25;7.47;;;6.77;;
10403;SDS011;5248;47.374;8.486;2024-01-30T03:56:52;7.57;;;6.20;;
10403;SDS011;5248;47.374;8.486;2024-01-30T03:59:18;7.20;;;6.50;;
10403;SDS011;5248;47.374;8.486;2024-01-30T04:01:49;7.10;;;6.33;;
10403;SDS011;5248;47.374;8.486;2024-01-30T04:04:17;8.10;;;6.63;;
10403;SDS011;5248;47.374;8.486;2024-01-30T04:06:44;7.00;;;6.27;;
10403;SDS011;5248;47.374;8.486;2024-01-30T04:09:10;7.40;;;6.60;;
10403;SDS011;5248;47.374;8.486;2024-01-30T04:11:38;9.10;;;6.40;;
10403;SDS011;5248;47.374;8.486;2024-01-30T04:14:04;7.20;;;6.10;;
10403;SDS011;5248;47.374;8.486;2024-01-30T04:16:31;7.37;;;6.13;;
10403;SDS011;5248;47.374;8.486;2024-01-30T04:18:58;6.60;;;6.00;;
10403;SDS011;5248;47.374;8.486;2024-01-30T04:21:26;7.60;;;5.77;;
10403;SDS011;5248;47.374;8.486;2024-01-30T04:23:52;7.43;;;6.50;;
10403;SDS011;5248;47.374;8.486;2024-01-30T04:26:19;6.30;;;5.70;;
10403;SDS011;5248;47.374;8.486;2024-01-30T04:28:46;6.27;;;5.67;;
10403;SDS011;5248;47.374;8.486;2024-01-30T04:31:12;6.40;;;5.80;;
10403;SDS011;5248;47.374;8.486;2024-01-30T04:33:39;7.23;;;6.03;;
10403;SDS011;5248;47.374;8.486;2024-01-30T04:36:08;7.33;;;6.50;;
10403;SDS011;5248;47.374;8.486;2024-01-30T04:38:37;7.30;;;6.53;;
10403;SDS011;5248;47.374;8.486;2024-01-30T04:41:04;6.50;;;5.90;;
10403;SDS011;5248;47.374;8.486;2024-01-30T04:43:33;7.73;;;5.77;;
10403;SDS011;5248;47.374;8.486;2024-01-30T04:46:00;7.27;;;6.10;;
10403;SDS011;5248;47.374;8.486;2024-01-30T04:48:26;7.37;;;6.67;;
10403;SDS011;5248;47.374;8.486;2024-01-30T04:50:53;6.47;;;5.87;;
10403;SDS011;5248;47.374;8.486;2024-01-30T04:53:21;7.93;;;6.07;;
10403;SDS011;5248;47.374;8.486;2024-01-30T04:55:49;8.40;;;6.47;;
10403;SDS011;5248;47.374;8.486;2024-01-30T04:58:15;8.30;;;6.30;;
10403;SDS011;5248;47.374;8.486;2024-01-30T05:00:42;9.37;;;6.37;;
10403;SDS011;5248;47.374;8.486;2024-01-30T05:03:11;6.87;;;6.17;;
10403;SDS011;5248;47.374;8.486;2024-01-30T05:05:37;6.97;;;6.37;;
10403;SDS011;5248;47.374;8.486;2024-01-30T05:08:04;6.53;;;5.90;;
10403;SDS011;5248;47.374;8.486;2024-01-30T05:10:31;7.43;;;6.30;;
10403;SDS011;5248;47.374;8.486;2024-01-30T05:12:59;7.27;;;6.57;;
10403;SDS011;5248;47.374;8.486;2024-01-30T05:15:26;7.43;;;6.50;;
10403;SDS011;5248;47.374;8.486;2024-01-30T05:17:52;7.17;;;6.47;;
10403;SDS011;5248;47.374;8.486;2024-01-30T05:20:19;7.57;;;6.87;;
10403;SDS011;5248;47.374;8.486;2024-01-30T05:22:46;7.23;;;6.53;;
10403;SDS011;5248;47.374;8.486;2024-01-30T05:25:12;6.33;;;5.73;;
10403;SDS011;5248;47.374;8.486;2024-01-30T05:27:40;10.33;;;6.53;;
10403;SDS011;5248;47.374;8.486;2024-01-30T05:30:09;7.57;;;6.87;;
10403;SDS011;5248;47.374;8.486;2024-01-30T05:32:36;8.20;;;6.53;;
10403;SDS011;5248;47.374;8.486;2024-01-30T05:35:03;8.63;;;6.70;;
10403;SDS011;5248;47.374;8.486;2024-01-30T05:37:30;7.73;;;6.40;;
10403;SDS011;5248;47.374;8.486;2024-01-30T05:39:57;7.30;;;6.57;;
10403;SDS011;5248;47.374;8.486;2024-01-30T05:42:24;7.13;;;6.43;;
10403;SDS011;5248;47.374;8.486;2024-01-30T05:44:52;7.10;;;6.40;;
10403;SDS011;5248;47.374;8.486;2024-01-30T05:47:20;9.00;;;6.67;;
10403;SDS011;5248;47.374;8.486;2024-01-30T05:49:48;7.53;;;5.97;;
10403;SDS011;5248;47.374;8.486;2024-01-30T05:52:15;7.47;;;6.67;;
10403;SDS011;5248;47.374;8.486;2024-01-30T05:54:42;9.20;;;6.47;;
10403;SDS011;5248;47.374;8.486;2024-01-30T05:57:09;7.07;;;6.37;;
10403;SDS011;5248;47.374;8.486;2024-01-30T05:59:35;7.83;;;6.57;;
10403;SDS011;5248;47.374;8.486;2024-01-30T06:02:03;7.60;;;6.90;;
10403;SDS011;5248;47.374;8.486;2024-01-30T06:04:31;7.67;;;6.93;;
10403;SDS011;5248;47.374;8.486;2024-01-30T06:06:57;8.83;;;6.93;;
10403;SDS011;5248;47.374;8.486;2024-01-30T06:09:26;7.47;;;6.60;;
10403;SDS011;5248;47.374;8.486;2024-01-30T06:11:53;8.60;;;6.60;;
10403;SDS011;5248;47.374;8.486;2024-01-30T06:14:20;7.60;;;6.80;;
10403;SDS011;5248;47.374;8.486;2024-01-30T06:16:47;7.93;;;6.50;;
10403;SDS011;5248;47.374;8.486;2024-01-30T06:19:14;8.00;;;7.20;;
10403;SDS011;5248;47.374;8.486;2024-01-30T06:21:42;11.30;;;7.50;;
10403;SDS011;5248;47.374;8.486;2024-01-30T06:24:09;8.20;;;7.27;;
10403;SDS011;5248;47.374;8.486;2024-01-30T06:26:35;13.00;;;7.27;;
10403;SDS011;5248;47.374;8.486;2024-01-30T06:29:02;11.80;;;7.30;;
10403;SDS011;5248;47.374;8.486;2024-01-30T06:31:29;8.03;;;6.73;;
10403;SDS011;5248;47.374;8.486;2024-01-30T06:33:56;8.13;;;6.87;;
10403;SDS011;5248;47.374;8.486;2024-01-30T06:36:22;8.43;;;7.57;;
10403;SDS011;5248;47.374;8.486;2024-01-30T06:38:50;13.30;;;8.07;;
10403;SDS011;5248;47.374;8.486;2024-01-30T06:41:17;8.73;;;7.50;;
10403;SDS011;5248;47.374;8.486;2024-01-30T06:43:44;8.03;;;7.23;;
10403;SDS011;5248;47.374;8.486;2024-01-30T06:46:11;10.43;;;7.90;;
10403;SDS011;5248;47.374;8.486;2024-01-30T06:48:38;8.23;;;7.30;;
10403;SDS011;5248;47.374;8.486;2024-01-30T06:51:05;8.73;;;6.97;;
10403;SDS011;5248;47.374;8.486;2024-01-30T06:53:32;8.47;;;7.30;;
10403;SDS011;5248;47.374;8.486;2024-01-30T06:56:00;8.97;;;7.20;;
10403;SDS011;5248;47.374;8.486;2024-01-30T06:58:26;8.43;;;6.93;;
10403;SDS011;5248;47.374;8.486;2024-01-30T07:00:53;7.83;;;7.03;;
10403;SDS011;5248;47.374;8.486;2024-01-30T07:03:21;10.47;;;7.20;;
10403;SDS011;5248;47.374;8.486;2024-01-30T07:05:48;9.23;;;6.90;;
10403;SDS011;5248;47.374;8.486;2024-01-30T07:08:14;11.27;;;8.20;;
10403;SDS011;5248;47.374;8.486;2024-01-30T07:10:42;9.03;;;7.80;;
10403;SDS011;5248;47.374;8.486;2024-01-30T07:13:11;9.70;;;8.10;;
10403;SDS011;5248;47.374;8.486;2024-01-30T07:15:38;11.03;;;7.83;;
10403;SDS011;5248;47.374;8.486;2024-01-30T07:18:05;8.73;;;7.80;;
10403;SDS011;5248;47.374;8.486;2024-01-30T07:20:32;9.40;;;7.63;;
10403;SDS011;5248;47.374;8.486;2024-01-30T07:23:00;10.00;;;8.20;;
10403;SDS011;5248;47.374;8.486;2024-01-30T07:25:28;10.37;;;8.30;;
10403;SDS011;5248;47.374;8.486;2024-01-30T07:27:55;9.17;;;8.23;;
10403;SDS011;5248;47.374;8.486;2024-01-30T07:30:23;10.83;;;7.70;;
10403;SDS011;5248;47.374;8.486;2024-01-30T07:32:52;8.50;;;7.60;;
10403;SDS011;5248;47.374;8.486;2024-01-30T07:35:20;9.47;;;7.70;;
10403;SDS011;5248;47.374;8.486;2024-01-30T07:37:47;12.53;;;8.30;;
10403;SDS011;5248;47.374;8.486;2024-01-30T07:40:13;10.17;;;8.67;;
10403;SDS011;5248;47.374;8.486;2024-01-30T07:42:40;8.67;;;7.80;;
10403;SDS011;5248;47.374;8.486;2024-01-30T07:45:07;12.17;;;8.23;;
10403;SDS011;5248;47.374;8.486;2024-01-30T07:47:37;12.13;;;8.60;;
10403;SDS011;5248;47.374;8.486;2024-01-30T07:50:04;9.87;;;8.37;;
10403;SDS011;5248;47.374;8.486;2024-01-30T07:52:32;12.97;;;8.33;;
10403;SDS011;5248;47.374;8.486;2024-01-30T07:58:20;14.73;;;8.90;;
10403;SDS011;5248;47.374;8.486;2024-01-30T08:00:48;13.47;;;9.00;;
10403;SDS011;5248;47.374;8.486;2024-01-30T08:03:18;12.50;;;8.90;;
10403;SDS011;5248;47.374;8.486;2024-01-30T08:05:44;12.13;;;8.13;;
10403;SDS011;5248;47.374;8.486;2024-01-30T08:08:11;12.00;;;8.43;;
10403;SDS011;5248;47.374;8.486;2024-01-30T08:10:38;10.87;;;8.23;;
10403;SDS011;5248;47.374;8.486;2024-01-30T08:13:06;10.00;;;8.47;;
10403;SDS011;5248;47.374;8.486;2024-01-30T08:15:33;10.20;;;8.50;;
10403;SDS011;5248;47.374;8.486;2024-01-30T08:18:00;9.30;;;8.30;;
10403;SDS011;5248;47.374;8.486;2024-01-30T08:20:28;11.07;;;8.33;;
10403;SDS011;5248;47.374;8.486;2024-01-30T08:22:55;10.87;;;9.40;;
10403;SDS011;5248;47.374;8.486;2024-01-30T08:25:22;9.20;;;7.93;;
10403;SDS011;5248;47.374;8.486;2024-01-30T08:27:49;10.67;;;8.40;;
10403;SDS011;5248;47.374;8.486;2024-01-30T08:30:16;9.73;;;8.80;;
10403;SDS011;5248;47.374;8.486;2024-01-30T08:32:42;12.40;;;8.90;;
10403;SDS011;5248;47.374;8.486;2024-01-30T08:35:09;11.03;;;9.00;;
10403;SDS011;5248;47.374;8.486;2024-01-30T08:37:40;9.77;;;8.77;;
10403;SDS011;5248;47.374;8.486;2024-01-30T08:40:07;11.30;;;9.10;;
10403;SDS011;5248;47.374;8.486;2024-01-30T08:42:34;10.60;;;9.07;;
10403;SDS011;5248;47.374;8.486;2024-01-30T08:45:00;13.47;;;9.17;;
10403;SDS011;5248;47.374;8.486;2024-01-30T08:47:29;11.83;;;8.67;;
10403;SDS011;5248;47.374;8.486;2024-01-30T08:49:56;10.17;;;8.80;;
10403;SDS011;5248;47.374;8.486;2024-01-30T08:52:22;10.53;;;9.33;;
10403;SDS011;5248;47.374;8.486;2024-01-30T08:54:51;12.97;;;9.20;;
10403;SDS011;5248;47.374;8.486;2024-01-30T08:57:20;10.17;;;9.07;;
10403;SDS011;5248;47.374;8.486;2024-01-30T08:59:46;11.27;;;10.07;;
10403;SDS011;5248;47.374;8.486;2024-01-30T09:02:13;13.07;;;10.03;;
10403;SDS011;5248;47.374;8.486;2024-01-30T09:04:41;10.97;;;9.80;;
10403;SDS011;5248;47.374;8.486;2024-01-30T09:07:10;12.77;;;9.33;;
10403;SDS011;5248;47.374;8.486;2024-01-30T09:09:38;12.20;;;10.23;;
10403;SDS011;5248;47.374;8.486;2024-01-30T09:12:07;9.73;;;8.83;;
10403;SDS011;5248;47.374;8.486;2024-01-30T09:14:37;10.17;;;9.13;;
10403;SDS011;5248;47.374;8.486;2024-01-30T09:17:03;10.63;;;9.53;;
10403;SDS011;5248;47.374;8.486;2024-01-30T09:19:30;11.50;;;9.37;;
10403;SDS011;5248;47.374;8.486;2024-01-30T09:21:56;11.20;;;9.53;;
10403;SDS011;5248;47.374;8.486;2024-01-30T09:24:23;10.60;;;9.60;;
10403;SDS011;5248;47.374;8.486;2024-01-30T09:26:50;11.10;;;9.37;;
10403;SDS011;5248;47.374;8.486;2024-01-30T09:29:18;12.50;;;9.50;;
10403;SDS011;5248;47.374;8.486;2024-01-30T09:31:45;11.03;;;8.93;;
10403;SDS011;5248;47.374;8.486;2024-01-30T09:34:12;11.87;;;8.70;;
10403;SDS011;5248;47.374;8.486;2024-01-30T09:36:39;9.83;;;8.43;;
10403;SDS011;5248;47.374;8.486;2024-01-30T09:39:06;10.63;;;8.97;;
10403;SDS011;5248;47.374;8.486;2024-01-30T09:41:33;10.00;;;8.70;;
10403;SDS011;5248;47.374;8.486;2024-01-30T09:44:00;10.33;;;8.33;;
10403;SDS011;5248;47.374;8.486;2024-01-30T09:46:29;12.73;;;9.30;;
10403;SDS011;5248;47.374;8.486;2024-01-30T09:48:58;11.03;;;8.33;;
10403;SDS011;5248;47.374;8.486;2024-01-30T09:51:24;11.50;;;8.60;;
10403;SDS011;5248;47.374;8.486;2024-01-30T09:53:54;12.13;;;8.73;;
10403;SDS011;5248;47.374;8.486;2024-01-30T09:56:21;13.87;;;8.67;;
10403;SDS011;5248;47.374;8.486;2024-01-30T09:58:48;12.93;;;8.43;;
10403;SDS011;5248;47.374;8.486;2024-01-30T10:01:15;13.50;;;9.33;;
10403;SDS011;5248;47.374;8.486;2024-01-30T10:03:45;14.83;;;8.63;;
10403;SDS011;5248;47.374;8.486;2024-01-30T10:06:11;14.20;;;8.60;;
10403;SDS011;5248;47.374;8.486;2024-01-30T10:08:38;10.40;;;8.20;;
10403;SDS011;5248;47.374;8.486;2024-01-30T10:11:05;10.17;;;7.37;;
10403;SDS011;5248;47.374;8.486;2024-01-30T10:13:31;10.80;;;7.83;;
10403;SDS011;5248;47.374;8.486;2024-01-30T10:15:58;9.17;;;8.27;;
10403;SDS011;5248;47.374;8.486;2024-01-30T10:18:27;10.10;;;8.60;;
10403;SDS011;5248;47.374;8.486;2024-01-30T10:20:58;12.43;;;8.23;;
10403;SDS011;5248;47.374;8.486;2024-01-30T10:23:25;10.47;;;8.17;;
10403;SDS011;5248;47.374;8.486;2024-01-30T10:25:51;9.70;;;8.27;;
10403;SDS011;5248;47.374;8.486;2024-01-30T10:28:18;14.57;;;8.38;;
10403;SDS011;5248;47.374;8.486;2024-01-30T10:30:46;11.82;;;9.07;;
10403;SDS011;5248;47.374;8.486;2024-01-30T10:33:23;9.90;;;8.23;;
10403;SDS011;5248;47.374;8.486;2024-01-30T10:35:50;8.63;;;7.72;;
10403;SDS011;5248;47.374;8.486;2024-01-30T10:38:19;8.95;;;8.05;;
10403;SDS011;5248;47.374;8.486;2024-01-30T10:40:46;12.50;;;8.25;;
10403;SDS011;5248;47.374;8.486;2024-01-30T10:43:14;10.80;;;8.50;;
10403;SDS011;5248;47.374;8.486;2024-01-30T10:45:42;12.48;;;7.90;;
10403;SDS011;5248;47.374;8.486;2024-01-30T10:48:11;9.40;;;8.50;;
10403;SDS011;5248;47.374;8.486;2024-01-30T10:50:38;9.07;;;7.63;;
10403;SDS011;5248;47.374;8.486;2024-01-30T10:53:06;10.27;;;8.15;;
10403;SDS011;5248;47.374;8.486;2024-01-30T10:55:36;9.00;;;8.10;;
10403;SDS011;5248;47.374;8.486;2024-01-30T10:58:03;8.73;;;7.45;;
10403;SDS011;5248;47.374;8.486;2024-01-30T11:00:31;9.50;;;7.35;;
10403;SDS011;5248;47.374;8.486;2024-01-30T11:02:59;10.75;;;8.00;;
10403;SDS011;5248;47.374;8.486;2024-01-30T11:05:26;12.35;;;8.82;;
10403;SDS011;5248;47.374;8.486;2024-01-30T11:07:54;10.25;;;7.75;;
10403;SDS011;5248;47.374;8.486;2024-01-30T11:10:20;9.63;;;8.05;;
10403;SDS011;5248;47.374;8.486;2024-01-30T11:12:49;8.68;;;7.88;;
10403;SDS011;5248;47.374;8.486;2024-01-30T11:15:16;8.50;;;7.63;;
10403;SDS011;5248;47.374;8.486;2024-01-30T11:17:44;11.25;;;8.07;;
10403;SDS011;5248;47.374;8.486;2024-01-30T11:20:12;8.80;;;7.95;;
10403;SDS011;5248;47.374;8.486;2024-01-30T11:22:40;12.00;;;8.13;;
10403;SDS011;5248;47.374;8.486;2024-01-30T11:25:10;12.10;;;8.15;;
10403;SDS011;5248;47.374;8.486;2024-01-30T11:27:37;8.48;;;7.40;;
10403;SDS011;5248;47.374;8.486;2024-01-30T11:30:07;14.20;;;8.05;;
10403;SDS011;5248;47.374;8.486;2024-01-30T11:32:34;12.45;;;7.35;;
10403;SDS011;5248;47.374;8.486;2024-01-30T11:35:02;10.23;;;8.02;;
10403;SDS011;5248;47.374;8.486;2024-01-30T11:37:34;9.52;;;7.32;;
10403;SDS011;5248;47.374;8.486;2024-01-30T11:40:03;7.78;;;7.07;;
10403;SDS011;5248;47.374;8.486;2024-01-30T11:42:30;12.02;;;7.15;;
10403;SDS011;5248;47.374;8.486;2024-01-30T11:44:59;7.68;;;6.80;;
10403;SDS011;5248;47.374;8.486;2024-01-30T11:47:30;9.32;;;7.18;;
10403;SDS011;5248;47.374;8.486;2024-01-30T11:49:57;7.88;;;7.07;;
10403;SDS011;5248;47.374;8.486;2024-01-30T11:52:23;9.32;;;7.20;;
10403;SDS011;5248;47.374;8.486;2024-01-30T11:54:50;8.45;;;7.65;;
10403;SDS011;5248;47.374;8.486;2024-01-30T11:57:17;8.10;;;7.03;;
10403;SDS011;5248;47.374;8.486;2024-01-30T11:59:43;7.90;;;6.78;;
10403;SDS011;5248;47.374;8.486;2024-01-30T12:02:14;8.88;;;7.47;;
10403;SDS011;5248;47.374;8.486;2024-01-30T12:04:43;12.98;;;7.97;;
10403;SDS011;5248;47.374;8.486;2024-01-30T12:07:10;9.32;;;8.07;;
10403;SDS011;5248;47.374;8.486;2024-01-30T12:09:37;8.30;;;7.50;;
10403;SDS011;5248;47.374;8.486;2024-01-30T12:12:06;13.18;;;8.07;;
10403;SDS011;5248;47.374;8.486;2024-01-30T12:14:37;10.32;;;8.55;;
10403;SDS011;5248;47.374;8.486;2024-01-30T12:17:04;8.07;;;7.38;;
10403;SDS011;5248;47.374;8.486;2024-01-30T12:19:32;11.93;;;7.93;;
10403;SDS011;5248;47.374;8.486;2024-01-30T12:22:00;9.95;;;8.23;;
10403;SDS011;5248;47.374;8.486;2024-01-30T12:24:28;11.38;;;8.65;;
10403;SDS011;5248;47.374;8.486;2024-01-30T12:26:56;10.50;;;8.75;;
10403;SDS011;5248;47.374;8.486;2024-01-30T12:29:23;10.13;;;8.18;;
10403;SDS011;5248;47.374;8.486;2024-01-30T12:31:52;10.68;;;8.75;;
10403;SDS011;5248;47.374;8.486;2024-01-30T12:34:19;14.45;;;9.13;;
10403;SDS011;5248;47.374;8.486;2024-01-30T12:36:46;13.90;;;8.75;;
10403;SDS011;5248;47.374;8.486;2024-01-30T12:39:14;9.82;;;8.27;;
10403;SDS011;5248;47.374;8.486;2024-01-30T12:41:42;11.65;;;8.43;;
10403;SDS011;5248;47.374;8.486;2024-01-30T12:44:09;9.45;;;8.43;;
10403;SDS011;5248;47.374;8.486;2024-01-30T12:46:38;11.52;;;8.65;;
10403;SDS011;5248;47.374;8.486;2024-01-30T12:49:05;9.43;;;8.45;;
10403;SDS011;5248;47.374;8.486;2024-01-30T12:51:33;10.43;;;8.65;;
10403;SDS011;5248;47.374;8.486;2024-01-30T12:54:03;12.80;;;8.85;;
10403;SDS011;5248;47.374;8.486;2024-01-30T12:56:32;9.10;;;8.20;;
10403;SDS011;5248;47.374;8.486;2024-01-30T12:58:59;13.00;;;8.43;;
10403;SDS011;5248;47.374;8.486;2024-01-30T13:01:26;11.23;;;8.63;;
10403;SDS011;5248;47.374;8.486;2024-01-30T13:03:52;10.15;;;8.90;;
10403;SDS011;5248;47.374;8.486;2024-01-30T13:06:19;10.40;;;8.68;;
10403;SDS011;5248;47.374;8.486;2024-01-30T13:08:45;9.35;;;8.38;;
10403;SDS011;5248;47.374;8.486;2024-01-30T13:11:12;9.77;;;8.70;;
10403;SDS011;5248;47.374;8.486;2024-01-30T13:13:40;10.55;;;8.60;;
10403;SDS011;5248;47.374;8.486;2024-01-30T13:16:07;11.77;;;8.88;;
10403;SDS011;5248;47.374;8.486;2024-01-30T13:18:34;13.00;;;8.70;;
10403;SDS011;5248;47.374;8.486;2024-01-30T13:21:01;11.65;;;8.73;;
10403;SDS011;5248;47.374;8.486;2024-01-30T13:23:28;12.73;;;9.18;;
10403;SDS011;5248;47.374;8.486;2024-01-30T13:25:54;9.40;;;7.85;;
10403;SDS011;5248;47.374;8.486;2024-01-30T13:28:23;11.10;;;8.75;;
10403;SDS011;5248;47.374;8.486;2024-01-30T13:30:52;12.65;;;8.77;;
10403;SDS011;5248;47.374;8.486;2024-01-30T13:33:18;11.48;;;8.65;;
10403;SDS011;5248;47.374;8.486;2024-01-30T13:35:45;9.13;;;8.10;;
10403;SDS011;5248;47.374;8.486;2024-01-30T13:38:12;9.60;;;7.70;;
10403;SDS011;5248;47.374;8.486;2024-01-30T13:40:40;8.73;;;7.30;;
10403;SDS011;5248;47.374;8.486;2024-01-30T13:43:06;11.75;;;8.05;;
10403;SDS011;5248;47.374;8.486;2024-01-30T13:45:35;9.25;;;7.93;;
10403;SDS011;5248;47.374;8.486;2024-01-30T13:48:03;10.38;;;7.88;;
10403;SDS011;5248;47.374;8.486;2024-01-30T13:50:32;8.48;;;7.35;;
10403;SDS011;5248;47.374;8.486;2024-01-30T13:52:59;8.68;;;6.85;;
10403;SDS011;5248;47.374;8.486;2024-01-30T13:55:25;10.77;;;7.72;;
10403;SDS011;5248;47.374;8.486;2024-01-30T13:57:52;9.55;;;7.63;;
10403;SDS011;5248;47.374;8.486;2024-01-30T14:00:18;10.35;;;7.97;;
10403;SDS011;5248;47.374;8.486;2024-01-30T14:02:47;8.30;;;7.07;;
10403;SDS011;5248;47.374;8.486;2024-01-30T14:05:15;7.80;;;6.85;;
10403;SDS011;5248;47.374;8.486;2024-01-30T14:07:42;9.98;;;7.53;;
10403;SDS011;5248;47.374;8.486;2024-01-30T14:10:09;8.35;;;7.45;;
10403;SDS011;5248;47.374;8.486;2024-01-30T14:12:36;8.48;;;6.97;;
10403;SDS011;5248;47.374;8.486;2024-01-30T14:15:03;7.32;;;5.93;;
10403;SDS011;5248;47.374;8.486;2024-01-30T14:17:29;6.88;;;6.13;;
10403;SDS011;5248;47.374;8.486;2024-01-30T14:19:56;8.55;;;6.20;;
10403;SDS011;5248;47.374;8.486;2024-01-30T14:22:24;6.40;;;5.80;;
10403;SDS011;5248;47.374;8.486;2024-01-30T14:24:52;7.57;;;5.97;;
10403;SDS011;5248;47.374;8.486;2024-01-30T14:27:21;6.97;;;6.28;;
10403;SDS011;5248;47.374;8.486;2024-01-30T14:29:48;7.80;;;7.00;;
10403;SDS011;5248;47.374;8.486;2024-01-30T14:32:14;6.55;;;5.85;;
10403;SDS011;5248;47.374;8.486;2024-01-30T14:34:41;8.00;;;6.50;;
10403;SDS011;5248;47.374;8.486;2024-01-30T14:37:08;7.25;;;6.57;;
10403;SDS011;5248;47.374;8.486;2024-01-30T14:39:36;7.90;;;6.53;;
10403;SDS011;5248;47.374;8.486;2024-01-30T14:42:02;9.35;;;6.95;;
10403;SDS011;5248;47.374;8.486;2024-01-30T14:44:29;8.30;;;6.72;;
10403;SDS011;5248;47.374;8.486;2024-01-30T14:46:56;6.97;;;6.20;;
10403;SDS011;5248;47.374;8.486;2024-01-30T14:49:24;7.95;;;6.68;;
10403;SDS011;5248;47.374;8.486;2024-01-30T14:51:51;6.95;;;6.28;;
10403;SDS011;5248;47.374;8.486;2024-01-30T14:54:18;7.40;;;6.70;;
10403;SDS011;5248;47.374;8.486;2024-01-30T14:56:45;8.00;;;7.20;;
10403;SDS011;5248;47.374;8.486;2024-01-30T14:59:12;7.47;;;6.67;;
10403;SDS011;5248;47.374;8.486;2024-01-30T15:01:39;7.10;;;6.40;;